sensor_id;sensor_type;location;lat;lon;timestamp;P1;durP1;ratioP1;P2;durP2;ratioP2
52354;SDS011;38286;51.156;17.038;2023-04-19T00:00:50;26.27;;;14.25;;
52354;SDS011;38286;51.156;17.038;2023-04-19T00:03:16;25.95;;;13.60;;
52354;SDS011;38286;51.156;17.038;2023-04-19T00:05:42;25.67;;;13.70;;
52354;SDS011;38286;51.156;17.038;2023-04-19T00:08:08;29.73;;;15.60;;
52354;SDS011;38286;51.156;17.038;2023-04-19T00:10:34;26.75;;;14.25;;
52354;SDS011;38286;51.156;17.038;2023-04-19T00:13:02;30.02;;;15.40;;
52354;SDS011;38286;51.156;17.038;2023-04-19T00:15:27;27.15;;;15.05;;
52354;SDS011;38286;51.156;17.038;2023-04-19T00:17:54;27.02;;;14.75;;
52354;SDS011;38286;51.156;17.038;2023-04-19T00:20:20;27.90;;;15.02;;
52354;SDS011;38286;51.156;17.038;2023-04-19T00:22:46;26.20;;;14.63;;
52354;SDS011;38286;51.156;17.038;2023-04-19T00:25:12;26.63;;;14.35;;
52354;SDS011;38286;51.156;17.038;2023-04-19T00:27:38;27.63;;;14.82;;
52354;SDS011;38286;51.156;17.038;2023-04-19T00:30:04;24.95;;;14.68;;
52354;SDS011;38286;51.156;17.038;2023-04-19T00:32:31;27.33;;;14.55;;
52354;SDS011;38286;51.156;17.038;2023-04-19T00:34:57;25.23;;;14.40;;
52354;SDS011;38286;51.156;17.038;2023-04-19T00:37:23;22.10;;;13.50;;
52354;SDS011;38286;51.156;17.038;2023-04-19T00:39:49;24.17;;;13.02;;
52354;SDS011;38286;51.156;17.038;2023-04-19T00:42:15;25.00;;;13.80;;
52354;SDS011;38286;51.156;17.038;2023-04-19T00:44:41;21.50;;;13.13;;
52354;SDS011;38286;51.156;17.038;2023-04-19T00:47:07;25.80;;;13.95;;
52354;SDS011;38286;51.156;17.038;2023-04-19T00:49:33;18.95;;;11.50;;
52354;SDS011;38286;51.156;17.038;2023-04-19T00:51:59;21.05;;;11.90;;
52354;SDS011;38286;51.156;17.038;2023-04-19T00:54:25;21.80;;;12.02;;
52354;SDS011;38286;51.156;17.038;2023-04-19T00:56:51;19.52;;;12.05;;
52354;SDS011;38286;51.156;17.038;2023-04-19T00:59:17;23.10;;;13.05;;
52354;SDS011;38286;51.156;17.038;2023-04-19T01:01:44;23.45;;;12.43;;
52354;SDS011;38286;51.156;17.038;2023-04-19T01:04:10;22.75;;;13.23;;
52354;SDS011;38286;51.156;17.038;2023-04-19T01:06:36;21.40;;;12.98;;
52354;SDS011;38286;51.156;17.038;2023-04-19T01:09:03;21.67;;;13.60;;
52354;SDS011;38286;51.156;17.038;2023-04-19T01:11:29;21.77;;;13.25;;
52354;SDS011;38286;51.156;17.038;2023-04-19T01:13:55;22.85;;;12.95;;
52354;SDS011;38286;51.156;17.038;2023-04-19T01:16:25;22.17;;;13.10;;
52354;SDS011;38286;51.156;17.038;2023-04-19T01:18:51;23.77;;;13.95;;
52354;SDS011;38286;51.156;17.038;2023-04-19T01:21:18;22.88;;;13.48;;
52354;SDS011;38286;51.156;17.038;2023-04-19T01:23:44;23.40;;;13.07;;
52354;SDS011;38286;51.156;17.038;2023-04-19T01:26:10;23.95;;;13.02;;
52354;SDS011;38286;51.156;17.038;2023-04-19T01:28:36;21.92;;;13.13;;
52354;SDS011;38286;51.156;17.038;2023-04-19T01:31:02;20.15;;;11.98;;
52354;SDS011;38286;51.156;17.038;2023-04-19T01:33:28;21.90;;;12.40;;
52354;SDS011;38286;51.156;17.038;2023-04-19T01:36:12;24.17;;;11.88;;
52354;SDS011;38286;51.156;17.038;2023-04-19T01:38:38;17.95;;;11.23;;
52354;SDS011;38286;51.156;17.038;2023-04-19T01:41:04;18.42;;;10.85;;
52354;SDS011;38286;51.156;17.038;2023-04-19T01:43:32;16.73;;;9.77;;
52354;SDS011;38286;51.156;17.038;2023-04-19T01:45:58;16.85;;;9.43;;
52354;SDS011;38286;51.156;17.038;2023-04-19T01:48:24;12.55;;;8.07;;
52354;SDS011;38286;51.156;17.038;2023-04-19T01:50:50;14.77;;;8.18;;
52354;SDS011;38286;51.156;17.038;2023-04-19T01:53:16;14.95;;;8.23;;
52354;SDS011;38286;51.156;17.038;2023-04-19T01:55:42;14.77;;;8.38;;
52354;SDS011;38286;51.156;17.038;2023-04-19T01:58:08;16.52;;;8.20;;
52354;SDS011;38286;51.156;17.038;2023-04-19T02:00:34;17.15;;;7.97;;
52354;SDS011;38286;51.156;17.038;2023-04-19T02:03:00;14.45;;;8.85;;
52354;SDS011;38286;51.156;17.038;2023-04-19T02:05:26;19.02;;;9.40;;
52354;SDS011;38286;51.156;17.038;2023-04-19T02:07:52;17.48;;;9.15;;
52354;SDS011;38286;51.156;17.038;2023-04-19T02:10:18;16.38;;;9.18;;
52354;SDS011;38286;51.156;17.038;2023-04-19T02:12:44;15.30;;;9.18;;
52354;SDS011;38286;51.156;17.038;2023-04-19T02:15:10;16.17;;;8.98;;
52354;SDS011;38286;51.156;17.038;2023-04-19T02:17:36;15.95;;;9.63;;
52354;SDS011;38286;51.156;17.038;2023-04-19T02:20:03;15.00;;;8.15;;
52354;SDS011;38286;51.156;17.038;2023-04-19T02:22:30;13.40;;;7.03;;
52354;SDS011;38286;51.156;17.038;2023-04-19T02:24:56;12.65;;;6.78;;
52354;SDS011;38286;51.156;17.038;2023-04-19T02:27:22;13.65;;;6.00;;
52354;SDS011;38286;51.156;17.038;2023-04-19T02:29:48;13.00;;;7.10;;
52354;SDS011;38286;51.156;17.038;2023-04-19T02:32:14;14.35;;;6.65;;
52354;SDS011;38286;51.156;17.038;2023-04-19T02:34:40;10.93;;;6.60;;
52354;SDS011;38286;51.156;17.038;2023-04-19T02:37:06;14.63;;;6.80;;
52354;SDS011;38286;51.156;17.038;2023-04-19T02:39:32;9.32;;;6.30;;
52354;SDS011;38286;51.156;17.038;2023-04-19T02:41:58;10.90;;;6.43;;
52354;SDS011;38286;51.156;17.038;2023-04-19T02:44:25;12.07;;;7.55;;
52354;SDS011;38286;51.156;17.038;2023-04-19T02:46:52;12.68;;;6.97;;
52354;SDS011;38286;51.156;17.038;2023-04-19T02:49:18;13.65;;;6.55;;
52354;SDS011;38286;51.156;17.038;2023-04-19T02:51:44;11.32;;;6.05;;
52354;SDS011;38286;51.156;17.038;2023-04-19T02:54:11;11.30;;;6.15;;
52354;SDS011;38286;51.156;17.038;2023-04-19T02:56:37;12.70;;;6.38;;
52354;SDS011;38286;51.156;17.038;2023-04-19T02:59:03;10.00;;;5.78;;
52354;SDS011;38286;51.156;17.038;2023-04-19T03:01:29;8.98;;;5.47;;
52354;SDS011;38286;51.156;17.038;2023-04-19T03:03:56;9.30;;;5.60;;
52354;SDS011;38286;51.156;17.038;2023-04-19T03:06:22;12.18;;;5.57;;
52354;SDS011;38286;51.156;17.038;2023-04-19T03:08:48;10.73;;;5.47;;
52354;SDS011;38286;51.156;17.038;2023-04-19T03:11:14;10.13;;;5.10;;
52354;SDS011;38286;51.156;17.038;2023-04-19T03:13:41;10.02;;;5.00;;
52354;SDS011;38286;51.156;17.038;2023-04-19T03:16:07;10.95;;;5.65;;
52354;SDS011;38286;51.156;17.038;2023-04-19T03:18:34;8.65;;;4.80;;
52354;SDS011;38286;51.156;17.038;2023-04-19T03:21:00;7.22;;;4.90;;
52354;SDS011;38286;51.156;17.038;2023-04-19T03:23:27;9.15;;;5.10;;
52354;SDS011;38286;51.156;17.038;2023-04-19T03:25:53;7.78;;;5.13;;
52354;SDS011;38286;51.156;17.038;2023-04-19T03:28:19;11.07;;;5.80;;
52354;SDS011;38286;51.156;17.038;2023-04-19T03:30:45;11.07;;;5.93;;
52354;SDS011;38286;51.156;17.038;2023-04-19T03:33:11;10.77;;;5.68;;
52354;SDS011;38286;51.156;17.038;2023-04-19T03:35:37;11.30;;;5.97;;
52354;SDS011;38286;51.156;17.038;2023-04-19T03:38:03;12.82;;;6.43;;
52354;SDS011;38286;51.156;17.038;2023-04-19T03:40:31;9.68;;;5.70;;
52354;SDS011;38286;51.156;17.038;2023-04-19T03:42:58;15.50;;;6.00;;
52354;SDS011;38286;51.156;17.038;2023-04-19T03:45:23;8.90;;;5.47;;
52354;SDS011;38286;51.156;17.038;2023-04-19T03:47:50;11.02;;;5.68;;
52354;SDS011;38286;51.156;17.038;2023-04-19T03:50:16;8.98;;;5.10;;
52354;SDS011;38286;51.156;17.038;2023-04-19T03:52:42;9.35;;;5.38;;
52354;SDS011;38286;51.156;17.038;2023-04-19T03:55:08;7.30;;;5.03;;
52354;SDS011;38286;51.156;17.038;2023-04-19T03:57:35;11.05;;;5.10;;
52354;SDS011;38286;51.156;17.038;2023-04-19T04:00:02;9.48;;;4.38;;
52354;SDS011;38286;51.156;17.038;2023-04-19T04:02:32;7.30;;;4.85;;
52354;SDS011;38286;51.156;17.038;2023-04-19T04:04:58;10.07;;;4.63;;
52354;SDS011;38286;51.156;17.038;2023-04-19T04:07:24;10.43;;;5.13;;
52354;SDS011;38286;51.156;17.038;2023-04-19T04:09:50;9.27;;;5.15;;
52354;SDS011;38286;51.156;17.038;2023-04-19T04:12:16;11.98;;;5.30;;
52354;SDS011;38286;51.156;17.038;2023-04-19T04:14:42;9.73;;;5.43;;
52354;SDS011;38286;51.156;17.038;2023-04-19T04:17:08;10.18;;;6.30;;
52354;SDS011;38286;51.156;17.038;2023-04-19T04:19:34;14.70;;;6.13;;
52354;SDS011;38286;51.156;17.038;2023-04-19T04:22:00;13.32;;;5.82;;
52354;SDS011;38286;51.156;17.038;2023-04-19T04:24:26;9.05;;;5.13;;
52354;SDS011;38286;51.156;17.038;2023-04-19T04:26:52;10.70;;;5.88;;
52354;SDS011;38286;51.156;17.038;2023-04-19T04:29:18;9.75;;;5.72;;
52354;SDS011;38286;51.156;17.038;2023-04-19T04:31:44;9.15;;;5.90;;
52354;SDS011;38286;51.156;17.038;2023-04-19T04:34:10;12.77;;;6.15;;
52354;SDS011;38286;51.156;17.038;2023-04-19T04:36:37;15.63;;;5.93;;
52354;SDS011;38286;51.156;17.038;2023-04-19T04:39:03;11.68;;;6.53;;
52354;SDS011;38286;51.156;17.038;2023-04-19T04:41:30;11.23;;;6.75;;
52354;SDS011;38286;51.156;17.038;2023-04-19T04:43:57;14.55;;;7.32;;
52354;SDS011;38286;51.156;17.038;2023-04-19T04:46:25;13.77;;;6.88;;
52354;SDS011;38286;51.156;17.038;2023-04-19T04:48:51;14.60;;;6.82;;
52354;SDS011;38286;51.156;17.038;2023-04-19T04:51:18;11.85;;;6.78;;
52354;SDS011;38286;51.156;17.038;2023-04-19T04:53:44;13.10;;;6.03;;
52354;SDS011;38286;51.156;17.038;2023-04-19T04:56:10;13.13;;;6.38;;
52354;SDS011;38286;51.156;17.038;2023-04-19T04:58:36;11.73;;;6.68;;
52354;SDS011;38286;51.156;17.038;2023-04-19T05:01:02;13.55;;;6.50;;
52354;SDS011;38286;51.156;17.038;2023-04-19T05:03:28;10.88;;;6.55;;
52354;SDS011;38286;51.156;17.038;2023-04-19T05:05:54;12.52;;;6.95;;
52354;SDS011;38286;51.156;17.038;2023-04-19T05:08:20;11.75;;;6.18;;
52354;SDS011;38286;51.156;17.038;2023-04-19T05:10:46;13.50;;;6.80;;
52354;SDS011;38286;51.156;17.038;2023-04-19T05:13:12;14.18;;;6.20;;
52354;SDS011;38286;51.156;17.038;2023-04-19T05:15:38;11.48;;;5.97;;
52354;SDS011;38286;51.156;17.038;2023-04-19T05:18:04;11.85;;;6.07;;
52354;SDS011;38286;51.156;17.038;2023-04-19T05:20:31;13.43;;;6.03;;
52354;SDS011;38286;51.156;17.038;2023-04-19T05:23:00;12.43;;;5.75;;
52354;SDS011;38286;51.156;17.038;2023-04-19T05:25:28;13.02;;;5.68;;
52354;SDS011;38286;51.156;17.038;2023-04-19T05:27:54;11.32;;;5.55;;
52354;SDS011;38286;51.156;17.038;2023-04-19T05:30:20;11.45;;;6.38;;
52354;SDS011;38286;51.156;17.038;2023-04-19T05:32:46;12.30;;;6.13;;
52354;SDS011;38286;51.156;17.038;2023-04-19T05:35:12;9.60;;;5.57;;
52354;SDS011;38286;51.156;17.038;2023-04-19T05:37:38;9.93;;;5.30;;
52354;SDS011;38286;51.156;17.038;2023-04-19T05:40:06;12.20;;;5.78;;
52354;SDS011;38286;51.156;17.038;2023-04-19T05:42:36;10.70;;;5.88;;
52354;SDS011;38286;51.156;17.038;2023-04-19T05:45:03;11.55;;;5.65;;
52354;SDS011;38286;51.156;17.038;2023-04-19T05:47:30;12.00;;;5.97;;
52354;SDS011;38286;51.156;17.038;2023-04-19T05:49:56;10.30;;;5.25;;
52354;SDS011;38286;51.156;17.038;2023-04-19T05:52:22;12.10;;;5.85;;
52354;SDS011;38286;51.156;17.038;2023-04-19T05:54:48;9.90;;;5.55;;
52354;SDS011;38286;51.156;17.038;2023-04-19T05:57:14;12.43;;;5.80;;
52354;SDS011;38286;51.156;17.038;2023-04-19T05:59:40;12.48;;;5.60;;
52354;SDS011;38286;51.156;17.038;2023-04-19T06:02:06;10.35;;;5.28;;
52354;SDS011;38286;51.156;17.038;2023-04-19T06:04:32;8.43;;;4.93;;
52354;SDS011;38286;51.156;17.038;2023-04-19T06:06:58;13.10;;;5.45;;
52354;SDS011;38286;51.156;17.038;2023-04-19T06:09:24;11.23;;;5.70;;
52354;SDS011;38286;51.156;17.038;2023-04-19T06:11:50;9.45;;;5.55;;
52354;SDS011;38286;51.156;17.038;2023-04-19T06:14:19;10.07;;;5.28;;
52354;SDS011;38286;51.156;17.038;2023-04-19T06:16:45;9.75;;;5.15;;
52354;SDS011;38286;51.156;17.038;2023-04-19T06:19:11;9.85;;;5.05;;
52354;SDS011;38286;51.156;17.038;2023-04-19T06:21:37;9.63;;;4.75;;
52354;SDS011;38286;51.156;17.038;2023-04-19T06:24:07;11.80;;;6.18;;
52354;SDS011;38286;51.156;17.038;2023-04-19T06:26:33;13.50;;;5.07;;
52354;SDS011;38286;51.156;17.038;2023-04-19T06:28:59;11.50;;;5.20;;
52354;SDS011;38286;51.156;17.038;2023-04-19T06:31:25;9.55;;;5.03;;
52354;SDS011;38286;51.156;17.038;2023-04-19T06:33:51;8.75;;;5.00;;
52354;SDS011;38286;51.156;17.038;2023-04-19T06:36:18;9.98;;;5.20;;
52354;SDS011;38286;51.156;17.038;2023-04-19T06:38:45;9.35;;;5.43;;
52354;SDS011;38286;51.156;17.038;2023-04-19T06:41:11;9.70;;;4.82;;
52354;SDS011;38286;51.156;17.038;2023-04-19T06:43:37;11.63;;;5.03;;
52354;SDS011;38286;51.156;17.038;2023-04-19T06:46:07;6.75;;;4.80;;
52354;SDS011;38286;51.156;17.038;2023-04-19T06:48:34;10.07;;;5.05;;
52354;SDS011;38286;51.156;17.038;2023-04-19T06:51:00;9.43;;;5.03;;
52354;SDS011;38286;51.156;17.038;2023-04-19T06:53:26;8.02;;;4.68;;
52354;SDS011;38286;51.156;17.038;2023-04-19T06:55:56;13.35;;;5.38;;
52354;SDS011;38286;51.156;17.038;2023-04-19T06:58:24;10.57;;;4.90;;
52354;SDS011;38286;51.156;17.038;2023-04-19T07:00:50;11.40;;;5.13;;
52354;SDS011;38286;51.156;17.038;2023-04-19T07:03:16;10.73;;;4.68;;
52354;SDS011;38286;51.156;17.038;2023-04-19T07:05:42;9.10;;;4.63;;
52354;SDS011;38286;51.156;17.038;2023-04-19T07:08:08;7.95;;;4.72;;
52354;SDS011;38286;51.156;17.038;2023-04-19T07:10:34;8.57;;;4.53;;
52354;SDS011;38286;51.156;17.038;2023-04-19T07:13:00;9.27;;;4.57;;
52354;SDS011;38286;51.156;17.038;2023-04-19T07:15:26;8.70;;;4.40;;
52354;SDS011;38286;51.156;17.038;2023-04-19T07:17:52;10.07;;;5.53;;
52354;SDS011;38286;51.156;17.038;2023-04-19T07:20:18;8.98;;;4.80;;
52354;SDS011;38286;51.156;17.038;2023-04-19T07:22:45;10.15;;;5.10;;
52354;SDS011;38286;51.156;17.038;2023-04-19T07:25:11;10.65;;;5.38;;
52354;SDS011;38286;51.156;17.038;2023-04-19T07:27:37;10.07;;;4.95;;
52354;SDS011;38286;51.156;17.038;2023-04-19T07:30:03;11.23;;;5.20;;
52354;SDS011;38286;51.156;17.038;2023-04-19T07:32:29;9.95;;;5.38;;
52354;SDS011;38286;51.156;17.038;2023-04-19T07:34:55;13.40;;;5.18;;
52354;SDS011;38286;51.156;17.038;2023-04-19T07:37:21;9.85;;;5.28;;
52354;SDS011;38286;51.156;17.038;2023-04-19T07:39:47;9.18;;;5.03;;
52354;SDS011;38286;51.156;17.038;2023-04-19T07:42:13;8.93;;;5.10;;
52354;SDS011;38286;51.156;17.038;2023-04-19T07:44:39;10.32;;;5.20;;
52354;SDS011;38286;51.156;17.038;2023-04-19T07:47:05;9.93;;;5.35;;
52354;SDS011;38286;51.156;17.038;2023-04-19T07:49:31;10.80;;;5.13;;
52354;SDS011;38286;51.156;17.038;2023-04-19T07:51:59;12.00;;;5.70;;
52354;SDS011;38286;51.156;17.038;2023-04-19T07:54:26;9.88;;;5.65;;
52354;SDS011;38286;51.156;17.038;2023-04-19T07:56:52;9.68;;;5.22;;
52354;SDS011;38286;51.156;17.038;2023-04-19T07:59:18;10.68;;;5.75;;
52354;SDS011;38286;51.156;17.038;2023-04-19T08:01:44;9.35;;;5.45;;
52354;SDS011;38286;51.156;17.038;2023-04-19T08:04:10;10.30;;;5.85;;
52354;SDS011;38286;51.156;17.038;2023-04-19T08:06:36;11.13;;;6.22;;
52354;SDS011;38286;51.156;17.038;2023-04-19T08:09:03;9.80;;;5.95;;
52354;SDS011;38286;51.156;17.038;2023-04-19T08:11:30;9.82;;;5.82;;
52354;SDS011;38286;51.156;17.038;2023-04-19T08:13:55;10.50;;;5.65;;
52354;SDS011;38286;51.156;17.038;2023-04-19T08:16:22;10.30;;;5.50;;
52354;SDS011;38286;51.156;17.038;2023-04-19T08:18:47;10.70;;;5.57;;
52354;SDS011;38286;51.156;17.038;2023-04-19T08:21:16;11.50;;;6.40;;
52354;SDS011;38286;51.156;17.038;2023-04-19T08:23:42;13.52;;;6.75;;
52354;SDS011;38286;51.156;17.038;2023-04-19T08:26:08;12.13;;;6.57;;
52354;SDS011;38286;51.156;17.038;2023-04-19T08:28:34;14.35;;;6.47;;
52354;SDS011;38286;51.156;17.038;2023-04-19T08:31:04;10.65;;;6.50;;
52354;SDS011;38286;51.156;17.038;2023-04-19T08:33:31;12.20;;;6.90;;
52354;SDS011;38286;51.156;17.038;2023-04-19T08:35:57;13.50;;;6.97;;
52354;SDS011;38286;51.156;17.038;2023-04-19T08:38:23;18.23;;;6.80;;
52354;SDS011;38286;51.156;17.038;2023-04-19T08:40:53;12.15;;;7.07;;
52354;SDS011;38286;51.156;17.038;2023-04-19T08:43:19;14.48;;;8.25;;
52354;SDS011;38286;51.156;17.038;2023-04-19T08:45:49;13.10;;;7.10;;
52354;SDS011;38286;51.156;17.038;2023-04-19T08:48:16;12.38;;;6.88;;
52354;SDS011;38286;51.156;17.038;2023-04-19T08:50:42;15.90;;;8.70;;
52354;SDS011;38286;51.156;17.038;2023-04-19T08:53:10;17.38;;;8.30;;
52354;SDS011;38286;51.156;17.038;2023-04-19T08:55:37;15.13;;;7.95;;
52354;SDS011;38286;51.156;17.038;2023-04-19T08:58:03;15.93;;;8.07;;
52354;SDS011;38286;51.156;17.038;2023-04-19T09:00:32;18.35;;;8.60;;
52354;SDS011;38286;51.156;17.038;2023-04-19T09:02:58;13.68;;;7.72;;
52354;SDS011;38286;51.156;17.038;2023-04-19T09:05:24;15.60;;;8.43;;
52354;SDS011;38286;51.156;17.038;2023-04-19T09:07:50;16.42;;;8.10;;
52354;SDS011;38286;51.156;17.038;2023-04-19T09:10:18;15.63;;;8.60;;
52354;SDS011;38286;51.156;17.038;2023-04-19T09:13:00;16.50;;;8.18;;
52354;SDS011;38286;51.156;17.038;2023-04-19T09:15:39;13.48;;;7.70;;
52354;SDS011;38286;51.156;17.038;2023-04-19T09:18:07;11.50;;;6.88;;
52354;SDS011;38286;51.156;17.038;2023-04-19T09:20:37;14.85;;;7.50;;
52354;SDS011;38286;51.156;17.038;2023-04-19T09:23:05;14.70;;;8.38;;
52354;SDS011;38286;51.156;17.038;2023-04-19T09:25:33;14.80;;;7.47;;
52354;SDS011;38286;51.156;17.038;2023-04-19T09:28:10;14.52;;;8.50;;
52354;SDS011;38286;51.156;17.038;2023-04-19T09:30:37;11.70;;;7.68;;
52354;SDS011;38286;51.156;17.038;2023-04-19T09:33:03;18.30;;;8.35;;
52354;SDS011;38286;51.156;17.038;2023-04-19T09:38:14;19.60;;;9.73;;
52354;SDS011;38286;51.156;17.038;2023-04-19T09:40:41;19.45;;;8.82;;
52354;SDS011;38286;51.156;17.038;2023-04-19T09:43:07;17.83;;;8.68;;
52354;SDS011;38286;51.156;17.038;2023-04-19T09:45:40;18.02;;;8.60;;
52354;SDS011;38286;51.156;17.038;2023-04-19T09:48:09;20.27;;;9.55;;
52354;SDS011;38286;51.156;17.038;2023-04-19T09:50:49;17.70;;;9.45;;
52354;SDS011;38286;51.156;17.038;2023-04-19T09:53:17;16.90;;;10.57;;
52354;SDS011;38286;51.156;17.038;2023-04-19T09:55:44;16.08;;;9.75;;
52354;SDS011;38286;51.156;17.038;2023-04-19T09:58:12;16.88;;;9.23;;
52354;SDS011;38286;51.156;17.038;2023-04-19T10:00:39;16.30;;;9.07;;
52354;SDS011;38286;51.156;17.038;2023-04-19T10:03:06;16.60;;;9.48;;
52354;SDS011;38286;51.156;17.038;2023-04-19T10:05:35;18.30;;;9.52;;
52354;SDS011;38286;51.156;17.038;2023-04-19T10:08:06;20.40;;;9.95;;
52354;SDS011;38286;51.156;17.038;2023-04-19T10:10:33;17.95;;;9.52;;
52354;SDS011;38286;51.156;17.038;2023-04-19T10:12:59;15.82;;;8.73;;
52354;SDS011;38286;51.156;17.038;2023-04-19T10:15:28;16.23;;;8.63;;
52354;SDS011;38286;51.156;17.038;2023-04-19T10:17:55;17.10;;;8.32;;
52354;SDS011;38286;51.156;17.038;2023-04-19T10:20:23;11.88;;;8.23;;
52354;SDS011;38286;51.156;17.038;2023-04-19T10:22:54;15.70;;;8.20;;
52354;SDS011;38286;51.156;17.038;2023-04-19T10:25:22;17.20;;;8.50;;
52354;SDS011;38286;51.156;17.038;2023-04-19T10:27:52;16.20;;;8.50;;
52354;SDS011;38286;51.156;17.038;2023-04-19T10:30:19;29.10;;;8.75;;
52354;SDS011;38286;51.156;17.038;2023-04-19T10:32:52;13.57;;;7.95;;
52354;SDS011;38286;51.156;17.038;2023-04-19T10:35:21;12.93;;;7.90;;
52354;SDS011;38286;51.156;17.038;2023-04-19T10:38:00;13.88;;;7.72;;
52354;SDS011;38286;51.156;17.038;2023-04-19T10:43:15;14.93;;;9.07;;
52354;SDS011;38286;51.156;17.038;2023-04-19T10:45:42;14.48;;;8.13;;
52354;SDS011;38286;51.156;17.038;2023-04-19T10:53:48;14.93;;;8.70;;
52354;SDS011;38286;51.156;17.038;2023-04-19T10:56:15;15.40;;;8.88;;
52354;SDS011;38286;51.156;17.038;2023-04-19T11:01:33;15.18;;;9.48;;
52354;SDS011;38286;51.156;17.038;2023-04-19T11:04:01;20.45;;;9.98;;
52354;SDS011;38286;51.156;17.038;2023-04-19T11:06:27;19.63;;;10.50;;
52354;SDS011;38286;51.156;17.038;2023-04-19T11:08:53;20.50;;;10.68;;
52354;SDS011;38286;51.156;17.038;2023-04-19T11:11:19;18.38;;;9.35;;
52354;SDS011;38286;51.156;17.038;2023-04-19T11:13:49;16.65;;;8.95;;
52354;SDS011;38286;51.156;17.038;2023-04-19T11:16:16;16.85;;;9.38;;
52354;SDS011;38286;51.156;17.038;2023-04-19T11:18:42;17.40;;;9.38;;
52354;SDS011;38286;51.156;17.038;2023-04-19T11:21:12;19.08;;;9.88;;
52354;SDS011;38286;51.156;17.038;2023-04-19T11:23:39;18.50;;;9.85;;
52354;SDS011;38286;51.156;17.038;2023-04-19T11:26:08;22.75;;;10.00;;
52354;SDS011;38286;51.156;17.038;2023-04-19T11:28:36;19.52;;;10.60;;
52354;SDS011;38286;51.156;17.038;2023-04-19T11:31:03;17.35;;;10.00;;
52354;SDS011;38286;51.156;17.038;2023-04-19T11:33:35;17.70;;;9.95;;
52354;SDS011;38286;51.156;17.038;2023-04-19T11:36:02;21.00;;;9.77;;
52354;SDS011;38286;51.156;17.038;2023-04-19T11:38:37;17.83;;;11.02;;
52354;SDS011;38286;51.156;17.038;2023-04-19T11:41:03;21.98;;;12.48;;
52354;SDS011;38286;51.156;17.038;2023-04-19T11:43:36;19.52;;;10.55;;
52354;SDS011;38286;51.156;17.038;2023-04-19T11:46:05;20.95;;;12.18;;
52354;SDS011;38286;51.156;17.038;2023-04-19T11:48:35;16.88;;;10.60;;
52354;SDS011;38286;51.156;17.038;2023-04-19T11:51:02;17.40;;;10.82;;
52354;SDS011;38286;51.156;17.038;2023-04-19T11:53:29;21.48;;;11.20;;
52354;SDS011;38286;51.156;17.038;2023-04-19T11:56:06;15.43;;;10.10;;
52354;SDS011;38286;51.156;17.038;2023-04-19T11:58:37;15.38;;;10.23;;
52354;SDS011;38286;51.156;17.038;2023-04-19T12:01:09;19.35;;;10.32;;
52354;SDS011;38286;51.156;17.038;2023-04-19T12:03:48;18.67;;;10.48;;
52354;SDS011;38286;51.156;17.038;2023-04-19T12:06:16;19.77;;;11.10;;
52354;SDS011;38286;51.156;17.038;2023-04-19T12:11:11;23.25;;;11.45;;
52354;SDS011;38286;51.156;17.038;2023-04-19T12:13:38;21.08;;;13.00;;
52354;SDS011;38286;51.156;17.038;2023-04-19T12:16:05;25.45;;;13.30;;
52354;SDS011;38286;51.156;17.038;2023-04-19T12:18:48;20.67;;;12.43;;
52354;SDS011;38286;51.156;17.038;2023-04-19T12:21:25;24.27;;;13.70;;
52354;SDS011;38286;51.156;17.038;2023-04-19T12:23:53;20.05;;;12.38;;
52354;SDS011;38286;51.156;17.038;2023-04-19T12:26:20;20.35;;;11.77;;
52354;SDS011;38286;51.156;17.038;2023-04-19T12:28:46;17.50;;;10.77;;
52354;SDS011;38286;51.156;17.038;2023-04-19T12:31:12;14.48;;;10.13;;
52354;SDS011;38286;51.156;17.038;2023-04-19T12:33:38;17.35;;;10.23;;
52354;SDS011;38286;51.156;17.038;2023-04-19T12:36:04;18.90;;;10.20;;
52354;SDS011;38286;51.156;17.038;2023-04-19T12:38:30;14.82;;;10.13;;
52354;SDS011;38286;51.156;17.038;2023-04-19T12:40:56;17.55;;;9.55;;
52354;SDS011;38286;51.156;17.038;2023-04-19T12:43:22;15.55;;;8.98;;
52354;SDS011;38286;51.156;17.038;2023-04-19T12:45:48;14.70;;;8.85;;
52354;SDS011;38286;51.156;17.038;2023-04-19T12:48:14;14.02;;;8.63;;
52354;SDS011;38286;51.156;17.038;2023-04-19T12:50:40;14.85;;;10.07;;
52354;SDS011;38286;51.156;17.038;2023-04-19T12:53:06;13.95;;;9.70;;
52354;SDS011;38286;51.156;17.038;2023-04-19T12:55:34;11.88;;;8.63;;
52354;SDS011;38286;51.156;17.038;2023-04-19T12:57:59;13.43;;;8.20;;
52354;SDS011;38286;51.156;17.038;2023-04-19T13:00:26;13.77;;;8.65;;
52354;SDS011;38286;51.156;17.038;2023-04-19T13:02:52;11.93;;;8.43;;
52354;SDS011;38286;51.156;17.038;2023-04-19T13:05:18;17.23;;;10.20;;
52354;SDS011;38286;51.156;17.038;2023-04-19T13:07:44;15.43;;;9.75;;
52354;SDS011;38286;51.156;17.038;2023-04-19T13:10:11;16.38;;;9.63;;
52354;SDS011;38286;51.156;17.038;2023-04-19T13:12:37;15.82;;;9.70;;
52354;SDS011;38286;51.156;17.038;2023-04-19T13:15:03;17.05;;;9.43;;
52354;SDS011;38286;51.156;17.038;2023-04-19T13:17:29;16.70;;;9.73;;
52354;SDS011;38286;51.156;17.038;2023-04-19T13:19:55;16.92;;;9.93;;
52354;SDS011;38286;51.156;17.038;2023-04-19T13:22:21;16.50;;;10.05;;
52354;SDS011;38286;51.156;17.038;2023-04-19T13:24:47;16.20;;;11.25;;
52354;SDS011;38286;51.156;17.038;2023-04-19T13:27:13;14.20;;;9.18;;
52354;SDS011;38286;51.156;17.038;2023-04-19T13:29:39;14.10;;;9.00;;
52354;SDS011;38286;51.156;17.038;2023-04-19T13:32:05;13.45;;;8.40;;
52354;SDS011;38286;51.156;17.038;2023-04-19T13:34:32;13.85;;;9.35;;
52354;SDS011;38286;51.156;17.038;2023-04-19T13:36:58;14.68;;;8.35;;
52354;SDS011;38286;51.156;17.038;2023-04-19T13:39:24;16.30;;;8.90;;
52354;SDS011;38286;51.156;17.038;2023-04-19T13:41:50;12.43;;;7.63;;
52354;SDS011;38286;51.156;17.038;2023-04-19T13:44:16;11.27;;;6.65;;
52354;SDS011;38286;51.156;17.038;2023-04-19T13:46:42;10.45;;;7.68;;
52354;SDS011;38286;51.156;17.038;2023-04-19T13:49:08;11.68;;;6.93;;
52354;SDS011;38286;51.156;17.038;2023-04-19T13:51:34;11.13;;;7.80;;
52354;SDS011;38286;51.156;17.038;2023-04-19T13:54:00;14.05;;;8.38;;
52354;SDS011;38286;51.156;17.038;2023-04-19T13:56:26;12.25;;;7.90;;
52354;SDS011;38286;51.156;17.038;2023-04-19T13:58:52;9.85;;;6.47;;
52354;SDS011;38286;51.156;17.038;2023-04-19T14:01:18;11.13;;;6.75;;
52354;SDS011;38286;51.156;17.038;2023-04-19T14:03:44;12.13;;;7.50;;
52354;SDS011;38286;51.156;17.038;2023-04-19T14:06:10;9.93;;;7.30;;
52354;SDS011;38286;51.156;17.038;2023-04-19T14:08:36;13.60;;;7.25;;
52354;SDS011;38286;51.156;17.038;2023-04-19T14:11:02;10.48;;;7.60;;
52354;SDS011;38286;51.156;17.038;2023-04-19T14:13:28;11.00;;;7.63;;
52354;SDS011;38286;51.156;17.038;2023-04-19T14:15:54;10.82;;;7.03;;
52354;SDS011;38286;51.156;17.038;2023-04-19T14:18:20;10.50;;;7.22;;
52354;SDS011;38286;51.156;17.038;2023-04-19T14:20:46;10.27;;;7.25;;
52354;SDS011;38286;51.156;17.038;2023-04-19T14:23:12;10.52;;;7.47;;
52354;SDS011;38286;51.156;17.038;2023-04-19T14:25:38;10.50;;;7.60;;
52354;SDS011;38286;51.156;17.038;2023-04-19T14:28:04;12.93;;;7.20;;
52354;SDS011;38286;51.156;17.038;2023-04-19T14:30:30;11.27;;;7.20;;
52354;SDS011;38286;51.156;17.038;2023-04-19T14:32:56;11.57;;;7.43;;
52354;SDS011;38286;51.156;17.038;2023-04-19T14:35:22;10.43;;;6.50;;